Aérodrome :
LOGIN :

S'inscrire | Disclaimer

   EN    FR    IT 

 










Légende :    VFR   VFR Marginal   IFR   IFR Intensif   IFR Très Intensif
Visi : 
Plafond : 
>= 8 km
>= 3000ft
5 à 8 km
1000 à 3000 ft
1500m à 5 km
500 à 1000 ft
800 à 1500m
200 à 500 ft
< 800m
< 200 ft
Symboles :   Orages  Brouillard  Fortes neiges  Fortes précipitations  Vent > 20 kt
SIGMETs :   Divers  Orages  Givrage  Turbulence  Onde Orograph.  Cendres Volcan.







- Altitude de l'aérodrome : 1273 ft
- Code IATA : LJU


LJLJ - Ljubljana

DERNIER METAR :
  • 171500Z 30010KT 9999 FEW037 FEW050CB BKN100 22/16 Q1018 NOSIG

METARs EXPIRÉS :
  • 171430Z 09008KT 060V120 9999 VCTS FEW037 FEW050CB BKN100 24/15 Q1018 NOSIG
  • 171400Z 14010KT 9999 VCTS FEW037 FEW050CB BKN100 24/16 Q1018 NOSIG
  • 171330Z 14011KT 9999 FEW037 FEW050CB SCT100 26/17 Q1018 NOSIG
  • 171300Z 14012KT 9999 FEW037 FEW050CB SCT100 26/17 Q1018 NOSIG
  • 171230Z 14012KT 9999 FEW037 FEW050CB SCT100 25/16 Q1018 NOSIG

TAF TAF LJLJ
Valide du 17 à 15h jusqu'au 18 à 15h UTC


171400Z 1715/1815 13007KT 9999 FEW035 SCT100
TEMPO 1715/1721 SHRA SCT050TCU SCT070
PROB40
TEMPO 1715/1718 32010KT 7000 TSRA SCT050CB SCT050
TEMPO 1720/1812 BKN070
PROB40
TEMPO 1808/1812 SHRA SCT045TCU BKN050
TEMPO 1812/1815 5000 TSRA SCT045CB
Pas de NOTAMs connus pour ce terrain.



MET'MAP, la Météo Aéronautique d'un coup d'oeil ! - Copyright ORBIFLY Décembre 2007 - Disclaimer

ORBIFLY MET'MAP TEAM :

Programmation & Développement : Alexandra Zaïnal
Conception & Développement : Baudouin d'Aumeries
Co-Programmation & Développement : Marc-Olivier Méhu
Soutien technique & logistique : Manuel Goepfert

Contact : metmap@orbifly.com




SOURCES & CREDITS :

   NOAA